sensor_id;sensor_type;location;lat;lon;timestamp;P1;durP1;ratioP1;P2;durP2;ratioP2
16037;SDS011;8123;50.906;6.172;2022-08-19T00:00:17;44.90;;;34.70;;
16037;SDS011;8123;50.906;6.172;2022-08-19T00:02:43;42.20;;;33.20;;
16037;SDS011;8123;50.906;6.172;2022-08-19T00:05:09;41.00;;;33.60;;
16037;SDS011;8123;50.906;6.172;2022-08-19T00:07:35;46.47;;;32.97;;
16037;SDS011;8123;50.906;6.172;2022-08-19T00:10:02;37.90;;;30.00;;
16037;SDS011;8123;50.906;6.172;2022-08-19T00:12:30;38.03;;;30.53;;
16037;SDS011;8123;50.906;6.172;2022-08-19T00:14:56;54.07;;;31.80;;
16037;SDS011;8123;50.906;6.172;2022-08-19T00:17:21;42.67;;;32.30;;
16037;SDS011;8123;50.906;6.172;2022-08-19T00:19:47;38.30;;;31.60;;
16037;SDS011;8123;50.906;6.172;2022-08-19T00:22:13;42.40;;;31.57;;
16037;SDS011;8123;50.906;6.172;2022-08-19T00:24:39;45.43;;;31.50;;
16037;SDS011;8123;50.906;6.172;2022-08-19T00:27:06;41.87;;;31.60;;
16037;SDS011;8123;50.906;6.172;2022-08-19T00:29:31;43.00;;;32.97;;
16037;SDS011;8123;50.906;6.172;2022-08-19T00:31:57;45.37;;;33.53;;
16037;SDS011;8123;50.906;6.172;2022-08-19T00:34:24;52.90;;;32.47;;
16037;SDS011;8123;50.906;6.172;2022-08-19T00:36:52;44.53;;;32.50;;
16037;SDS011;8123;50.906;6.172;2022-08-19T00:39:19;45.60;;;34.43;;
16037;SDS011;8123;50.906;6.172;2022-08-19T00:41:45;45.83;;;34.80;;
16037;SDS011;8123;50.906;6.172;2022-08-19T00:44:19;52.13;;;34.30;;
16037;SDS011;8123;50.906;6.172;2022-08-19T00:46:47;47.00;;;35.73;;
16037;SDS011;8123;50.906;6.172;2022-08-19T00:49:23;46.23;;;35.00;;
16037;SDS011;8123;50.906;6.172;2022-08-19T00:52:13;49.43;;;35.67;;
16037;SDS011;8123;50.906;6.172;2022-08-19T00:54:41;50.00;;;36.43;;
16037;SDS011;8123;50.906;6.172;2022-08-19T00:57:11;51.70;;;36.30;;
16037;SDS011;8123;50.906;6.172;2022-08-19T00:59:42;46.80;;;36.17;;
16037;SDS011;8123;50.906;6.172;2022-08-19T01:02:11;61.27;;;36.53;;
16037;SDS011;8123;50.906;6.172;2022-08-19T01:04:37;51.53;;;35.33;;
16037;SDS011;8123;50.906;6.172;2022-08-19T01:07:02;48.87;;;36.37;;
16037;SDS011;8123;50.906;6.172;2022-08-19T01:09:29;51.63;;;37.40;;
16037;SDS011;8123;50.906;6.172;2022-08-19T01:11:55;54.90;;;37.97;;
16037;SDS011;8123;50.906;6.172;2022-08-19T01:14:21;55.07;;;40.47;;
16037;SDS011;8123;50.906;6.172;2022-08-19T01:16:48;58.30;;;40.70;;
16037;SDS011;8123;50.906;6.172;2022-08-19T01:19:34;57.33;;;39.90;;
16037;SDS011;8123;50.906;6.172;2022-08-19T01:22:08;55.27;;;39.93;;
16037;SDS011;8123;50.906;6.172;2022-08-19T01:24:39;65.30;;;44.57;;
16037;SDS011;8123;50.906;6.172;2022-08-19T01:27:05;64.70;;;42.87;;
16037;SDS011;8123;50.906;6.172;2022-08-19T01:29:32;64.80;;;45.67;;
16037;SDS011;8123;50.906;6.172;2022-08-19T01:31:58;55.90;;;42.00;;
16037;SDS011;8123;50.906;6.172;2022-08-19T01:34:26;63.60;;;44.80;;
16037;SDS011;8123;50.906;6.172;2022-08-19T01:36:51;61.63;;;43.83;;
16037;SDS011;8123;50.906;6.172;2022-08-19T01:39:19;67.80;;;46.93;;
16037;SDS011;8123;50.906;6.172;2022-08-19T01:41:46;70.23;;;45.67;;
16037;SDS011;8123;50.906;6.172;2022-08-19T01:44:13;69.00;;;46.20;;
16037;SDS011;8123;50.906;6.172;2022-08-19T01:46:39;71.80;;;45.80;;
16037;SDS011;8123;50.906;6.172;2022-08-19T01:49:05;76.30;;;45.50;;
16037;SDS011;8123;50.906;6.172;2022-08-19T01:51:31;67.63;;;43.90;;
16037;SDS011;8123;50.906;6.172;2022-08-19T01:53:57;66.10;;;45.60;;
16037;SDS011;8123;50.906;6.172;2022-08-19T01:56:23;65.90;;;44.93;;
16037;SDS011;8123;50.906;6.172;2022-08-19T01:58:50;65.70;;;44.10;;
16037;SDS011;8123;50.906;6.172;2022-08-19T02:01:19;63.97;;;44.30;;
16037;SDS011;8123;50.906;6.172;2022-08-19T02:03:45;69.70;;;42.97;;
16037;SDS011;8123;50.906;6.172;2022-08-19T02:06:11;62.37;;;42.70;;
16037;SDS011;8123;50.906;6.172;2022-08-19T02:08:38;63.60;;;43.00;;
16037;SDS011;8123;50.906;6.172;2022-08-19T02:11:05;71.87;;;43.50;;
16037;SDS011;8123;50.906;6.172;2022-08-19T02:13:32;61.83;;;42.27;;
16037;SDS011;8123;50.906;6.172;2022-08-19T02:15:58;70.90;;;46.67;;
16037;SDS011;8123;50.906;6.172;2022-08-19T02:18:24;68.13;;;44.93;;
16037;SDS011;8123;50.906;6.172;2022-08-19T02:20:51;68.57;;;44.50;;
16037;SDS011;8123;50.906;6.172;2022-08-19T02:23:17;69.03;;;45.50;;
16037;SDS011;8123;50.906;6.172;2022-08-19T02:25:46;69.33;;;46.00;;
16037;SDS011;8123;50.906;6.172;2022-08-19T02:28:12;64.97;;;44.03;;
16037;SDS011;8123;50.906;6.172;2022-08-19T02:30:40;63.13;;;44.17;;
16037;SDS011;8123;50.906;6.172;2022-08-19T02:33:07;75.27;;;46.67;;
16037;SDS011;8123;50.906;6.172;2022-08-19T02:35:32;69.17;;;45.37;;
16037;SDS011;8123;50.906;6.172;2022-08-19T02:37:58;74.70;;;46.93;;
16037;SDS011;8123;50.906;6.172;2022-08-19T02:40:48;67.50;;;46.30;;
16037;SDS011;8123;50.906;6.172;2022-08-19T02:43:15;72.10;;;47.50;;
16037;SDS011;8123;50.906;6.172;2022-08-19T02:45:41;71.60;;;45.27;;
16037;SDS011;8123;50.906;6.172;2022-08-19T02:48:06;62.43;;;44.87;;
16037;SDS011;8123;50.906;6.172;2022-08-19T02:50:33;74.47;;;48.90;;
16037;SDS011;8123;50.906;6.172;2022-08-19T02:53:03;67.33;;;44.80;;
16037;SDS011;8123;50.906;6.172;2022-08-19T02:55:29;64.33;;;44.10;;
16037;SDS011;8123;50.906;6.172;2022-08-19T02:57:55;78.70;;;49.30;;
16037;SDS011;8123;50.906;6.172;2022-08-19T03:00:21;74.23;;;46.30;;
16037;SDS011;8123;50.906;6.172;2022-08-19T03:02:48;73.80;;;45.07;;
16037;SDS011;8123;50.906;6.172;2022-08-19T03:05:14;72.50;;;46.60;;
16037;SDS011;8123;50.906;6.172;2022-08-19T03:07:40;67.50;;;44.70;;
16037;SDS011;8123;50.906;6.172;2022-08-19T03:10:05;68.10;;;45.90;;
16037;SDS011;8123;50.906;6.172;2022-08-19T03:12:34;70.53;;;45.40;;
16037;SDS011;8123;50.906;6.172;2022-08-19T03:15:01;68.57;;;45.23;;
16037;SDS011;8123;50.906;6.172;2022-08-19T03:17:26;69.30;;;43.53;;
16037;SDS011;8123;50.906;6.172;2022-08-19T03:19:52;77.20;;;48.03;;
16037;SDS011;8123;50.906;6.172;2022-08-19T03:22:17;71.63;;;47.23;;
16037;SDS011;8123;50.906;6.172;2022-08-19T03:24:43;67.70;;;44.43;;
16037;SDS011;8123;50.906;6.172;2022-08-19T03:27:09;75.60;;;46.53;;
16037;SDS011;8123;50.906;6.172;2022-08-19T03:29:36;72.37;;;47.43;;
16037;SDS011;8123;50.906;6.172;2022-08-19T03:32:03;75.27;;;49.60;;
16037;SDS011;8123;50.906;6.172;2022-08-19T03:34:31;77.27;;;51.23;;
16037;SDS011;8123;50.906;6.172;2022-08-19T03:37:01;80.43;;;50.00;;
16037;SDS011;8123;50.906;6.172;2022-08-19T03:39:29;81.57;;;49.30;;
16037;SDS011;8123;50.906;6.172;2022-08-19T03:41:55;91.43;;;51.90;;
16037;SDS011;8123;50.906;6.172;2022-08-19T03:44:23;96.70;;;53.10;;
16037;SDS011;8123;50.906;6.172;2022-08-19T03:46:52;100.23;;;55.97;;
16037;SDS011;8123;50.906;6.172;2022-08-19T03:49:23;93.37;;;55.13;;
16037;SDS011;8123;50.906;6.172;2022-08-19T03:51:50;90.63;;;55.93;;
16037;SDS011;8123;50.906;6.172;2022-08-19T03:54:17;100.53;;;58.47;;
16037;SDS011;8123;50.906;6.172;2022-08-19T03:56:45;87.87;;;52.60;;
16037;SDS011;8123;50.906;6.172;2022-08-19T03:59:15;84.60;;;53.50;;
16037;SDS011;8123;50.906;6.172;2022-08-19T04:01:43;82.33;;;50.47;;
16037;SDS011;8123;50.906;6.172;2022-08-19T04:04:09;95.23;;;53.93;;
16037;SDS011;8123;50.906;6.172;2022-08-19T04:06:36;96.23;;;56.63;;
16037;SDS011;8123;50.906;6.172;2022-08-19T04:09:04;92.83;;;55.57;;
16037;SDS011;8123;50.906;6.172;2022-08-19T04:11:34;108.30;;;56.13;;
16037;SDS011;8123;50.906;6.172;2022-08-19T04:14:13;101.00;;;59.17;;
16037;SDS011;8123;50.906;6.172;2022-08-19T04:16:44;97.50;;;58.50;;
16037;SDS011;8123;50.906;6.172;2022-08-19T04:19:11;104.83;;;56.30;;
16037;SDS011;8123;50.906;6.172;2022-08-19T04:21:38;111.93;;;59.03;;
16037;SDS011;8123;50.906;6.172;2022-08-19T04:24:03;118.90;;;61.90;;
16037;SDS011;8123;50.906;6.172;2022-08-19T04:26:30;99.40;;;56.57;;
16037;SDS011;8123;50.906;6.172;2022-08-19T04:28:59;104.93;;;58.70;;
16037;SDS011;8123;50.906;6.172;2022-08-19T04:31:28;112.87;;;60.90;;
16037;SDS011;8123;50.906;6.172;2022-08-19T04:33:56;111.40;;;60.40;;
16037;SDS011;8123;50.906;6.172;2022-08-19T04:36:24;105.03;;;58.47;;
16037;SDS011;8123;50.906;6.172;2022-08-19T04:39:03;106.23;;;59.07;;
16037;SDS011;8123;50.906;6.172;2022-08-19T04:41:30;107.80;;;57.77;;
16037;SDS011;8123;50.906;6.172;2022-08-19T04:44:16;111.27;;;60.20;;
16037;SDS011;8123;50.906;6.172;2022-08-19T04:46:43;106.73;;;56.63;;
16037;SDS011;8123;50.906;6.172;2022-08-19T04:49:10;108.67;;;58.17;;
16037;SDS011;8123;50.906;6.172;2022-08-19T04:51:36;123.30;;;61.63;;
16037;SDS011;8123;50.906;6.172;2022-08-19T04:54:04;117.30;;;60.60;;
16037;SDS011;8123;50.906;6.172;2022-08-19T04:56:30;118.70;;;61.70;;
16037;SDS011;8123;50.906;6.172;2022-08-19T04:58:56;127.47;;;63.47;;
16037;SDS011;8123;50.906;6.172;2022-08-19T05:01:27;136.83;;;64.43;;
16037;SDS011;8123;50.906;6.172;2022-08-19T05:03:54;133.00;;;65.90;;
16037;SDS011;8123;50.906;6.172;2022-08-19T05:06:22;134.43;;;61.67;;
16037;SDS011;8123;50.906;6.172;2022-08-19T05:08:48;144.07;;;67.40;;
16037;SDS011;8123;50.906;6.172;2022-08-19T05:13:48;128.73;;;65.00;;
16037;SDS011;8123;50.906;6.172;2022-08-19T05:16:14;134.43;;;67.10;;
16037;SDS011;8123;50.906;6.172;2022-08-19T05:18:42;128.20;;;63.83;;
16037;SDS011;8123;50.906;6.172;2022-08-19T05:21:27;132.03;;;63.10;;
16037;SDS011;8123;50.906;6.172;2022-08-19T05:24:12;123.37;;;62.30;;
16037;SDS011;8123;50.906;6.172;2022-08-19T05:26:40;136.50;;;69.00;;
16037;SDS011;8123;50.906;6.172;2022-08-19T05:29:11;121.07;;;63.13;;
16037;SDS011;8123;50.906;6.172;2022-08-19T05:31:42;135.30;;;66.87;;
16037;SDS011;8123;50.906;6.172;2022-08-19T05:34:08;139.17;;;65.47;;
16037;SDS011;8123;50.906;6.172;2022-08-19T05:36:36;145.20;;;68.33;;
16037;SDS011;8123;50.906;6.172;2022-08-19T05:39:05;137.03;;;65.97;;
16037;SDS011;8123;50.906;6.172;2022-08-19T05:41:32;134.70;;;64.57;;
16037;SDS011;8123;50.906;6.172;2022-08-19T05:43:58;141.57;;;64.90;;
16037;SDS011;8123;50.906;6.172;2022-08-19T05:46:27;137.27;;;68.20;;
16037;SDS011;8123;50.906;6.172;2022-08-19T05:48:53;137.63;;;65.27;;
16037;SDS011;8123;50.906;6.172;2022-08-19T05:51:21;140.80;;;66.50;;
16037;SDS011;8123;50.906;6.172;2022-08-19T05:53:48;139.90;;;68.73;;
16037;SDS011;8123;50.906;6.172;2022-08-19T05:56:14;147.50;;;64.50;;
16037;SDS011;8123;50.906;6.172;2022-08-19T05:58:42;133.83;;;62.27;;
16037;SDS011;8123;50.906;6.172;2022-08-19T06:01:11;156.80;;;68.90;;
16037;SDS011;8123;50.906;6.172;2022-08-19T06:03:39;146.93;;;64.20;;
16037;SDS011;8123;50.906;6.172;2022-08-19T06:06:05;140.40;;;66.50;;
16037;SDS011;8123;50.906;6.172;2022-08-19T06:08:32;146.77;;;65.57;;
16037;SDS011;8123;50.906;6.172;2022-08-19T06:11:11;136.23;;;63.40;;
16037;SDS011;8123;50.906;6.172;2022-08-19T06:13:39;126.40;;;63.20;;
16037;SDS011;8123;50.906;6.172;2022-08-19T06:16:05;128.53;;;62.17;;
16037;SDS011;8123;50.906;6.172;2022-08-19T06:18:31;119.63;;;61.07;;
16037;SDS011;8123;50.906;6.172;2022-08-19T06:20:58;133.67;;;62.43;;
16037;SDS011;8123;50.906;6.172;2022-08-19T06:23:23;125.97;;;60.30;;
16037;SDS011;8123;50.906;6.172;2022-08-19T06:25:49;121.00;;;59.60;;
16037;SDS011;8123;50.906;6.172;2022-08-19T06:28:14;124.53;;;59.47;;
16037;SDS011;8123;50.906;6.172;2022-08-19T06:30:42;128.97;;;63.87;;
16037;SDS011;8123;50.906;6.172;2022-08-19T06:33:08;123.10;;;61.33;;
16037;SDS011;8123;50.906;6.172;2022-08-19T06:35:38;115.40;;;56.47;;
16037;SDS011;8123;50.906;6.172;2022-08-19T06:38:04;116.23;;;58.23;;
16037;SDS011;8123;50.906;6.172;2022-08-19T06:40:36;127.00;;;62.20;;
16037;SDS011;8123;50.906;6.172;2022-08-19T06:43:02;108.03;;;55.77;;
16037;SDS011;8123;50.906;6.172;2022-08-19T06:45:28;117.33;;;57.47;;
16037;SDS011;8123;50.906;6.172;2022-08-19T06:47:55;107.87;;;51.77;;
16037;SDS011;8123;50.906;6.172;2022-08-19T06:50:24;113.80;;;50.80;;
16037;SDS011;8123;50.906;6.172;2022-08-19T06:52:49;94.30;;;48.00;;
16037;SDS011;8123;50.906;6.172;2022-08-19T06:55:16;83.50;;;45.23;;
16037;SDS011;8123;50.906;6.172;2022-08-19T06:57:44;82.03;;;42.83;;
16037;SDS011;8123;50.906;6.172;2022-08-19T07:00:11;81.93;;;42.70;;
16037;SDS011;8123;50.906;6.172;2022-08-19T07:02:39;82.70;;;44.43;;
16037;SDS011;8123;50.906;6.172;2022-08-19T07:05:06;78.37;;;39.47;;
16037;SDS011;8123;50.906;6.172;2022-08-19T07:07:32;75.80;;;39.37;;
16037;SDS011;8123;50.906;6.172;2022-08-19T07:09:59;69.00;;;39.27;;
16037;SDS011;8123;50.906;6.172;2022-08-19T07:12:26;73.20;;;36.77;;
16037;SDS011;8123;50.906;6.172;2022-08-19T07:14:56;58.23;;;34.37;;
16037;SDS011;8123;50.906;6.172;2022-08-19T07:17:22;57.63;;;33.40;;
16037;SDS011;8123;50.906;6.172;2022-08-19T07:19:48;59.53;;;33.50;;
16037;SDS011;8123;50.906;6.172;2022-08-19T07:22:15;62.60;;;34.30;;
16037;SDS011;8123;50.906;6.172;2022-08-19T07:24:40;56.73;;;32.80;;
16037;SDS011;8123;50.906;6.172;2022-08-19T07:27:06;66.60;;;35.97;;
16037;SDS011;8123;50.906;6.172;2022-08-19T07:29:34;69.87;;;35.07;;
16037;SDS011;8123;50.906;6.172;2022-08-19T07:32:01;68.93;;;37.23;;
16037;SDS011;8123;50.906;6.172;2022-08-19T07:34:28;75.50;;;38.97;;
16037;SDS011;8123;50.906;6.172;2022-08-19T07:36:55;80.13;;;39.47;;
16037;SDS011;8123;50.906;6.172;2022-08-19T07:39:23;74.23;;;40.13;;
16037;SDS011;8123;50.906;6.172;2022-08-19T07:41:55;74.07;;;38.00;;
16037;SDS011;8123;50.906;6.172;2022-08-19T07:44:22;76.77;;;41.37;;
16037;SDS011;8123;50.906;6.172;2022-08-19T07:46:49;82.77;;;40.20;;
16037;SDS011;8123;50.906;6.172;2022-08-19T07:49:17;73.57;;;40.10;;
16037;SDS011;8123;50.906;6.172;2022-08-19T07:51:47;74.30;;;38.93;;
16037;SDS011;8123;50.906;6.172;2022-08-19T07:54:15;77.87;;;40.93;;
16037;SDS011;8123;50.906;6.172;2022-08-19T07:56:41;83.67;;;42.47;;
16037;SDS011;8123;50.906;6.172;2022-08-19T07:59:07;75.63;;;41.90;;
16037;SDS011;8123;50.906;6.172;2022-08-19T08:01:34;76.13;;;40.00;;
16037;SDS011;8123;50.906;6.172;2022-08-19T08:04:00;75.27;;;40.10;;
16037;SDS011;8123;50.906;6.172;2022-08-19T08:06:45;83.73;;;39.57;;
16037;SDS011;8123;50.906;6.172;2022-08-19T08:09:30;73.07;;;41.03;;
16037;SDS011;8123;50.906;6.172;2022-08-19T08:12:08;72.07;;;41.20;;
16037;SDS011;8123;50.906;6.172;2022-08-19T08:14:45;63.73;;;36.17;;
16037;SDS011;8123;50.906;6.172;2022-08-19T08:17:14;63.03;;;38.17;;
16037;SDS011;8123;50.906;6.172;2022-08-19T08:19:41;73.13;;;40.43;;
16037;SDS011;8123;50.906;6.172;2022-08-19T08:22:07;72.47;;;38.23;;
16037;SDS011;8123;50.906;6.172;2022-08-19T08:24:55;61.03;;;35.27;;
16037;SDS011;8123;50.906;6.172;2022-08-19T08:27:23;59.40;;;34.67;;
16037;SDS011;8123;50.906;6.172;2022-08-19T08:29:49;63.00;;;34.50;;
16037;SDS011;8123;50.906;6.172;2022-08-19T08:32:15;58.77;;;34.00;;
16037;SDS011;8123;50.906;6.172;2022-08-19T08:34:41;53.67;;;34.50;;
16037;SDS011;8123;50.906;6.172;2022-08-19T08:37:07;49.20;;;29.33;;
16037;SDS011;8123;50.906;6.172;2022-08-19T08:39:33;54.33;;;29.87;;
16037;SDS011;8123;50.906;6.172;2022-08-19T08:42:07;53.80;;;30.43;;
16037;SDS011;8123;50.906;6.172;2022-08-19T08:44:53;61.73;;;28.60;;
16037;SDS011;8123;50.906;6.172;2022-08-19T08:47:19;57.13;;;31.70;;
16037;SDS011;8123;50.906;6.172;2022-08-19T08:52:22;49.17;;;27.97;;
16037;SDS011;8123;50.906;6.172;2022-08-19T08:54:55;50.50;;;28.80;;
16037;SDS011;8123;50.906;6.172;2022-08-19T08:57:30;41.50;;;25.50;;
16037;SDS011;8123;50.906;6.172;2022-08-19T09:00:07;38.30;;;23.37;;
16037;SDS011;8123;50.906;6.172;2022-08-19T09:02:39;43.43;;;24.90;;
16037;SDS011;8123;50.906;6.172;2022-08-19T09:05:05;38.63;;;25.17;;
16037;SDS011;8123;50.906;6.172;2022-08-19T09:07:44;41.63;;;23.40;;
16037;SDS011;8123;50.906;6.172;2022-08-19T09:15:40;37.20;;;22.20;;
16037;SDS011;8123;50.906;6.172;2022-08-19T09:18:09;34.90;;;21.33;;
16037;SDS011;8123;50.906;6.172;2022-08-19T09:20:36;30.83;;;20.20;;
16037;SDS011;8123;50.906;6.172;2022-08-19T09:23:02;35.80;;;21.70;;
16037;SDS011;8123;50.906;6.172;2022-08-19T09:25:29;30.83;;;19.13;;
16037;SDS011;8123;50.906;6.172;2022-08-19T09:27:56;34.90;;;20.13;;
16037;SDS011;8123;50.906;6.172;2022-08-19T09:30:24;37.20;;;20.70;;
16037;SDS011;8123;50.906;6.172;2022-08-19T09:32:52;41.93;;;23.60;;
16037;SDS011;8123;50.906;6.172;2022-08-19T09:35:20;42.97;;;23.73;;
16037;SDS011;8123;50.906;6.172;2022-08-19T09:37:47;32.17;;;21.23;;
16037;SDS011;8123;50.906;6.172;2022-08-19T09:40:14;44.20;;;21.33;;
16037;SDS011;8123;50.906;6.172;2022-08-19T09:42:41;40.90;;;20.70;;
16037;SDS011;8123;50.906;6.172;2022-08-19T09:45:08;44.60;;;22.33;;
16037;SDS011;8123;50.906;6.172;2022-08-19T09:47:35;40.60;;;22.17;;
16037;SDS011;8123;50.906;6.172;2022-08-19T09:50:03;45.77;;;22.10;;
16037;SDS011;8123;50.906;6.172;2022-08-19T09:52:30;39.03;;;23.70;;
16037;SDS011;8123;50.906;6.172;2022-08-19T09:54:56;43.67;;;23.97;;
16037;SDS011;8123;50.906;6.172;2022-08-19T09:57:22;46.50;;;26.07;;
16037;SDS011;8123;50.906;6.172;2022-08-19T09:59:49;45.50;;;27.80;;
16037;SDS011;8123;50.906;6.172;2022-08-19T10:02:15;49.00;;;27.67;;
16037;SDS011;8123;50.906;6.172;2022-08-19T10:04:40;47.07;;;27.83;;
16037;SDS011;8123;50.906;6.172;2022-08-19T10:07:29;49.27;;;27.87;;
16037;SDS011;8123;50.906;6.172;2022-08-19T10:09:55;47.07;;;25.67;;
16037;SDS011;8123;50.906;6.172;2022-08-19T10:12:21;39.50;;;25.70;;
16037;SDS011;8123;50.906;6.172;2022-08-19T10:14:47;50.80;;;28.90;;
16037;SDS011;8123;50.906;6.172;2022-08-19T10:17:13;48.23;;;27.77;;
16037;SDS011;8123;50.906;6.172;2022-08-19T10:19:39;47.47;;;28.27;;
16037;SDS011;8123;50.906;6.172;2022-08-19T10:22:05;48.47;;;29.03;;
16037;SDS011;8123;50.906;6.172;2022-08-19T10:24:32;48.83;;;27.50;;
16037;SDS011;8123;50.906;6.172;2022-08-19T10:27:01;47.40;;;27.37;;
16037;SDS011;8123;50.906;6.172;2022-08-19T10:29:31;41.63;;;24.70;;
16037;SDS011;8123;50.906;6.172;2022-08-19T10:32:00;48.20;;;26.97;;
16037;SDS011;8123;50.906;6.172;2022-08-19T10:34:28;47.93;;;27.10;;
16037;SDS011;8123;50.906;6.172;2022-08-19T10:36:55;43.13;;;22.83;;
16037;SDS011;8123;50.906;6.172;2022-08-19T10:39:21;38.30;;;22.83;;
16037;SDS011;8123;50.906;6.172;2022-08-19T10:41:47;43.00;;;23.80;;
16037;SDS011;8123;50.906;6.172;2022-08-19T10:44:14;45.63;;;23.63;;
16037;SDS011;8123;50.906;6.172;2022-08-19T10:46:42;46.07;;;24.00;;
16037;SDS011;8123;50.906;6.172;2022-08-19T10:49:10;48.07;;;26.67;;
16037;SDS011;8123;50.906;6.172;2022-08-19T10:51:37;43.50;;;24.43;;
16037;SDS011;8123;50.906;6.172;2022-08-19T10:54:23;43.40;;;24.43;;
16037;SDS011;8123;50.906;6.172;2022-08-19T10:57:09;37.37;;;22.50;;
16037;SDS011;8123;50.906;6.172;2022-08-19T10:59:35;47.77;;;24.03;;
16037;SDS011;8123;50.906;6.172;2022-08-19T11:02:02;54.93;;;29.13;;
16037;SDS011;8123;50.906;6.172;2022-08-19T11:04:31;37.77;;;22.73;;
16037;SDS011;8123;50.906;6.172;2022-08-19T11:06:58;43.73;;;22.67;;
16037;SDS011;8123;50.906;6.172;2022-08-19T11:09:24;55.03;;;28.87;;
16037;SDS011;8123;50.906;6.172;2022-08-19T11:11:54;48.73;;;27.43;;
16037;SDS011;8123;50.906;6.172;2022-08-19T11:14:21;51.13;;;30.23;;
16037;SDS011;8123;50.906;6.172;2022-08-19T11:16:48;51.67;;;30.47;;
16037;SDS011;8123;50.906;6.172;2022-08-19T11:19:15;48.37;;;26.33;;
16037;SDS011;8123;50.906;6.172;2022-08-19T11:21:44;49.80;;;27.63;;
16037;SDS011;8123;50.906;6.172;2022-08-19T11:24:13;43.73;;;26.27;;
16037;SDS011;8123;50.906;6.172;2022-08-19T11:26:50;44.30;;;24.53;;
16037;SDS011;8123;50.906;6.172;2022-08-19T11:29:19;42.90;;;25.80;;
16037;SDS011;8123;50.906;6.172;2022-08-19T11:31:46;44.33;;;26.47;;
16037;SDS011;8123;50.906;6.172;2022-08-19T11:34:19;39.70;;;23.73;;
16037;SDS011;8123;50.906;6.172;2022-08-19T11:36:47;45.27;;;26.80;;
16037;SDS011;8123;50.906;6.172;2022-08-19T11:39:15;36.80;;;24.10;;
16037;SDS011;8123;50.906;6.172;2022-08-19T11:41:45;49.63;;;27.73;;
16037;SDS011;8123;50.906;6.172;2022-08-19T11:44:11;65.03;;;27.40;;
16037;SDS011;8123;50.906;6.172;2022-08-19T11:46:39;38.33;;;24.83;;
16037;SDS011;8123;50.906;6.172;2022-08-19T11:49:05;36.97;;;22.47;;
16037;SDS011;8123;50.906;6.172;2022-08-19T11:51:32;41.80;;;24.23;;
16037;SDS011;8123;50.906;6.172;2022-08-19T11:53:58;38.73;;;23.13;;
16037;SDS011;8123;50.906;6.172;2022-08-19T11:56:25;41.17;;;22.50;;
16037;SDS011;8123;50.906;6.172;2022-08-19T11:58:52;31.03;;;21.63;;
16037;SDS011;8123;50.906;6.172;2022-08-19T12:01:20;50.77;;;26.03;;
16037;SDS011;8123;50.906;6.172;2022-08-19T12:03:48;39.97;;;24.17;;
16037;SDS011;8123;50.906;6.172;2022-08-19T12:06:20;42.40;;;26.17;;
16037;SDS011;8123;50.906;6.172;2022-08-19T12:08:50;35.17;;;24.47;;
16037;SDS011;8123;50.906;6.172;2022-08-19T12:11:16;37.97;;;21.13;;
16037;SDS011;8123;50.906;6.172;2022-08-19T12:13:41;30.70;;;19.10;;
16037;SDS011;8123;50.906;6.172;2022-08-19T12:16:12;26.63;;;16.33;;
16037;SDS011;8123;50.906;6.172;2022-08-19T12:18:42;33.60;;;15.50;;
16037;SDS011;8123;50.906;6.172;2022-08-19T12:21:11;24.73;;;15.30;;
16037;SDS011;8123;50.906;6.172;2022-08-19T12:23:41;20.53;;;13.07;;
16037;SDS011;8123;50.906;6.172;2022-08-19T12:26:08;21.90;;;15.00;;
16037;SDS011;8123;50.906;6.172;2022-08-19T12:28:34;21.50;;;13.90;;
16037;SDS011;8123;50.906;6.172;2022-08-19T12:31:00;23.47;;;13.07;;
16037;SDS011;8123;50.906;6.172;2022-08-19T12:33:26;15.07;;;10.20;;
16037;SDS011;8123;50.906;6.172;2022-08-19T12:35:53;15.90;;;9.80;;
16037;SDS011;8123;50.906;6.172;2022-08-19T12:38:19;15.27;;;9.40;;
16037;SDS011;8123;50.906;6.172;2022-08-19T12:40:49;14.43;;;8.83;;
16037;SDS011;8123;50.906;6.172;2022-08-19T12:43:16;10.53;;;7.40;;
16037;SDS011;8123;50.906;6.172;2022-08-19T12:45:43;13.57;;;7.33;;
16037;SDS011;8123;50.906;6.172;2022-08-19T12:48:10;10.80;;;6.83;;
16037;SDS011;8123;50.906;6.172;2022-08-19T12:50:38;7.83;;;6.83;;
16037;SDS011;8123;50.906;6.172;2022-08-19T12:53:05;15.90;;;7.13;;
16037;SDS011;8123;50.906;6.172;2022-08-19T12:55:30;12.90;;;7.97;;
16037;SDS011;8123;50.906;6.172;2022-08-19T12:57:56;16.37;;;6.77;;
16037;SDS011;8123;50.906;6.172;2022-08-19T13:00:22;7.80;;;6.20;;
16037;SDS011;8123;50.906;6.172;2022-08-19T13:02:49;10.03;;;5.80;;
16037;SDS011;8123;50.906;6.172;2022-08-19T13:05:17;6.40;;;5.80;;
16037;SDS011;8123;50.906;6.172;2022-08-19T13:07:48;8.63;;;5.87;;
16037;SDS011;8123;50.906;6.172;2022-08-19T13:10:16;7.73;;;6.00;;
16037;SDS011;8123;50.906;6.172;2022-08-19T13:12:44;6.83;;;5.83;;
16037;SDS011;8123;50.906;6.172;2022-08-19T13:15:11;8.03;;;6.00;;
16037;SDS011;8123;50.906;6.172;2022-08-19T13:17:38;13.53;;;8.20;;
16037;SDS011;8123;50.906;6.172;2022-08-19T13:20:05;7.17;;;5.60;;
16037;SDS011;8123;50.906;6.172;2022-08-19T13:22:33;16.57;;;6.40;;
16037;SDS011;8123;50.906;6.172;2022-08-19T13:25:00;8.80;;;6.27;;
16037;SDS011;8123;50.906;6.172;2022-08-19T13:27:26;15.43;;;7.00;;
16037;SDS011;8123;50.906;6.172;2022-08-19T13:29:52;6.03;;;5.43;;
16037;SDS011;8123;50.906;6.172;2022-08-19T13:32:36;7.00;;;5.60;;
16037;SDS011;8123;50.906;6.172;2022-08-19T13:35:20;9.43;;;6.07;;
16037;SDS011;8123;50.906;6.172;2022-08-19T13:37:46;12.43;;;6.00;;
16037;SDS011;8123;50.906;6.172;2022-08-19T13:42:41;7.00;;;5.83;;
16037;SDS011;8123;50.906;6.172;2022-08-19T13:45:09;10.43;;;5.70;;
16037;SDS011;8123;50.906;6.172;2022-08-19T13:47:35;7.90;;;5.40;;
16037;SDS011;8123;50.906;6.172;2022-08-19T13:50:11;11.30;;;5.30;;
16037;SDS011;8123;50.906;6.172;2022-08-19T13:52:38;6.17;;;4.83;;
16037;SDS011;8123;50.906;6.172;2022-08-19T13:55:04;6.50;;;4.93;;
16037;SDS011;8123;50.906;6.172;2022-08-19T13:57:31;6.60;;;4.20;;
16037;SDS011;8123;50.906;6.172;2022-08-19T13:59:58;8.63;;;4.13;;
16037;SDS011;8123;50.906;6.172;2022-08-19T14:02:24;7.17;;;3.83;;
16037;SDS011;8123;50.906;6.172;2022-08-19T14:04:51;5.57;;;3.80;;
16037;SDS011;8123;50.906;6.172;2022-08-19T14:07:17;7.90;;;3.83;;
16037;SDS011;8123;50.906;6.172;2022-08-19T14:09:42;6.67;;;3.33;;
16037;SDS011;8123;50.906;6.172;2022-08-19T14:12:08;9.17;;;3.50;;
16037;SDS011;8123;50.906;6.172;2022-08-19T14:14:38;3.97;;;3.53;;
16037;SDS011;8123;50.906;6.172;2022-08-19T14:17:07;3.80;;;3.50;;
16037;SDS011;8123;50.906;6.172;2022-08-19T14:19:33;4.33;;;3.30;;
16037;SDS011;8123;50.906;6.172;2022-08-19T14:21:59;11.53;;;3.83;;
16037;SDS011;8123;50.906;6.172;2022-08-19T14:24:25;4.80;;;4.00;;
16037;SDS011;8123;50.906;6.172;2022-08-19T14:26:50;4.03;;;3.17;;
16037;SDS011;8123;50.906;6.172;2022-08-19T14:29:16;4.37;;;3.00;;
16037;SDS011;8123;50.906;6.172;2022-08-19T14:31:42;6.33;;;3.50;;
16037;SDS011;8123;50.906;6.172;2022-08-19T14:34:09;3.70;;;3.43;;
16037;SDS011;8123;50.906;6.172;2022-08-19T14:36:35;3.33;;;2.70;;
16037;SDS011;8123;50.906;6.172;2022-08-19T14:39:02;4.10;;;3.20;;
16037;SDS011;8123;50.906;6.172;2022-08-19T14:41:28;3.10;;;2.90;;
16037;SDS011;8123;50.906;6.172;2022-08-19T14:43:55;3.73;;;3.43;;
16037;SDS011;8123;50.906;6.172;2022-08-19T14:46:22;5.60;;;3.23;;
16037;SDS011;8123;50.906;6.172;2022-08-19T14:48:50;3.67;;;3.37;;
16037;SDS011;8123;50.906;6.172;2022-08-19T14:51:16;3.73;;;3.30;;
16037;SDS011;8123;50.906;6.172;2022-08-19T14:53:43;3.50;;;3.20;;